createdAt,value
2023-03-14T00:00:16.638Z,98414.20
2023-03-14T00:03:03.567Z,98409.20
2023-03-14T00:05:30.131Z,98407.00
2023-03-14T00:07:56.770Z,98414.60
2023-03-14T00:10:23.282Z,98410.00
2023-03-14T00:12:49.838Z,98420.60
2023-03-14T00:15:16.318Z,98418.40
2023-03-14T00:17:44.722Z,98420.20
2023-03-14T00:20:12.613Z,98431.20
2023-03-14T00:22:40.364Z,98436.60
2023-03-14T00:25:11.123Z,98446.60
2023-03-14T00:27:38.510Z,98443.60
2023-03-14T00:30:08.481Z,98423.80
2023-03-14T00:32:35.005Z,98417.60
2023-03-14T00:35:01.891Z,98406.80
2023-03-14T00:37:28.383Z,98417.00
2023-03-14T00:39:55.096Z,98415.20
2023-03-14T00:42:21.528Z,98399.60
2023-03-14T00:44:48.116Z,98388.60
2023-03-14T00:47:14.638Z,98394.00
2023-03-14T00:49:43.820Z,98402.40
2023-03-14T00:52:10.338Z,98403.80
2023-03-14T00:54:36.842Z,98405.20
2023-03-14T00:57:03.352Z,98410.20
2023-03-14T00:59:29.907Z,98410.00
2023-03-14T01:01:59.400Z,98423.40
2023-03-14T01:04:25.917Z,98416.60
2023-03-14T01:06:52.542Z,98414.20
2023-03-14T01:09:19.080Z,98415.20
2023-03-14T01:11:46.886Z,98405.80
2023-03-14T01:14:14.634Z,98390.00
2023-03-14T01:16:41.125Z,98389.60
2023-03-14T01:19:10.314Z,98382.40
2023-03-14T01:21:37.298Z,98375.20
2023-03-14T01:24:06.908Z,98385.20
2023-03-14T01:26:35.533Z,98397.60
2023-03-14T01:29:04.971Z,98377.60
2023-03-14T01:31:31.629Z,98375.80
2023-03-14T01:33:58.285Z,98367.00
2023-03-14T01:36:24.804Z,98366.00
2023-03-14T01:38:51.286Z,98377.40
2023-03-14T01:41:26.119Z,98371.80
2023-03-14T01:43:53.345Z,98373.00
2023-03-14T01:46:46.179Z,98367.80
2023-03-14T01:49:35.345Z,98361.00
2023-03-14T01:52:12.890Z,98371.20
2023-03-14T01:55:19.510Z,98366.80
2023-03-14T01:57:56.803Z,98359.00
2023-03-14T02:00:24.876Z,98352.80
2023-03-14T02:03:00.453Z,98358.60
2023-03-14T02:05:33.589Z,98350.20
2023-03-14T02:08:04.174Z,98340.80
2023-03-14T02:10:41.752Z,98335.00
2023-03-14T02:13:12.117Z,98332.40
2023-03-14T02:15:39.674Z,98331.20
2023-03-14T02:18:08.211Z,98323.80
2023-03-14T02:20:37.459Z,98338.40
2023-03-14T02:23:05.480Z,98341.40
2023-03-14T02:25:41.236Z,98337.20
2023-03-14T02:28:08.166Z,98343.40
2023-03-14T02:30:35.784Z,98341.60
2023-03-14T02:33:13.738Z,98334.60
2023-03-14T02:36:05.564Z,98336.00
2023-03-14T02:38:42.174Z,98335.80
2023-03-14T02:41:08.921Z,98338.40
2023-03-14T02:43:35.484Z,98333.20
2023-03-14T02:46:05.752Z,98331.60
2023-03-14T02:48:39.804Z,98316.60
2023-03-14T02:51:08.416Z,98309.20
2023-03-14T02:53:37.575Z,98325.40
2023-03-14T02:56:05.441Z,98319.60
2023-03-14T02:58:32.168Z,98329.00
2023-03-14T03:00:58.752Z,98337.00
2023-03-14T03:03:25.491Z,98350.60
2023-03-14T03:05:55.296Z,98363.40
2023-03-14T03:08:26.516Z,98375.60
2023-03-14T03:10:53.840Z,98373.00
2023-03-14T03:13:20.720Z,98367.80
2023-03-14T03:15:47.406Z,98369.20
2023-03-14T03:18:13.936Z,98370.40
2023-03-14T03:20:40.380Z,98383.40
2023-03-14T03:23:06.900Z,98387.80
2023-03-14T03:25:33.733Z,98399.40
2023-03-14T03:28:01.482Z,98396.80
2023-03-14T03:30:28.139Z,98401.60
2023-03-14T03:32:54.826Z,98405.00
2023-03-14T03:35:21.416Z,98398.60
2023-03-14T03:37:47.971Z,98393.60
2023-03-14T03:40:14.580Z,98403.00
2023-03-14T03:42:41.171Z,98405.80
2023-03-14T03:45:08.635Z,98408.00
2023-03-14T03:47:35.094Z,98413.80
2023-03-14T03:50:01.653Z,98411.60
2023-03-14T03:52:28.265Z,98414.60
2023-03-14T03:54:54.817Z,98408.20
2023-03-14T03:57:21.316Z,98398.80
2023-03-14T03:59:47.723Z,98393.80
2023-03-14T04:02:14.173Z,98401.00
2023-03-14T04:04:40.904Z,98401.60
2023-03-14T04:07:07.567Z,98393.40
2023-03-14T04:09:34.154Z,98380.60
2023-03-14T04:12:00.657Z,98380.20
2023-03-14T04:14:27.493Z,98369.60
2023-03-14T04:16:53.916Z,98375.60
2023-03-14T04:19:21.604Z,98378.60
2023-03-14T04:21:50.870Z,98382.20
2023-03-14T04:24:17.807Z,98373.00
2023-03-14T04:26:44.229Z,98359.20
2023-03-14T04:29:12.237Z,98348.60
2023-03-14T04:31:39.997Z,98346.40
2023-03-14T04:34:06.454Z,98345.60
2023-03-14T04:36:32.940Z,98341.80
2023-03-14T04:38:59.419Z,98341.80
2023-03-14T04:41:26.070Z,98337.40
2023-03-14T04:43:52.419Z,98336.20
2023-03-14T04:46:19.063Z,98333.20
2023-03-14T04:48:45.541Z,98336.00
2023-03-14T04:51:12.137Z,98328.00
2023-03-14T04:53:38.656Z,98323.00
2023-03-14T04:56:06.392Z,98318.00
2023-03-14T04:58:32.897Z,98309.20
2023-03-14T05:01:05.087Z,98307.60
2023-03-14T05:03:31.737Z,98293.40
2023-03-14T05:05:59.268Z,98285.60
2023-03-14T05:08:25.682Z,98287.00
2023-03-14T05:10:57.778Z,98273.40
2023-03-14T05:13:24.666Z,98267.20
2023-03-14T05:15:51.335Z,98265.40
2023-03-14T05:18:18.996Z,98262.40
2023-03-14T05:20:45.760Z,98256.40
2023-03-14T05:23:12.594Z,98253.00
2023-03-14T05:25:39.077Z,98247.00
2023-03-14T05:28:05.503Z,98242.80
2023-03-14T05:30:32.715Z,98248.00
2023-03-14T05:32:59.289Z,98259.40
2023-03-14T05:35:25.960Z,98260.80
2023-03-14T05:37:52.589Z,98264.80
2023-03-14T05:40:19.134Z,98272.00
2023-03-14T05:42:45.802Z,98281.00
2023-03-14T05:45:12.320Z,98288.20
2023-03-14T05:47:38.813Z,98288.60
2023-03-14T05:50:05.752Z,98294.40
2023-03-14T05:52:32.366Z,98302.20
2023-03-14T05:54:58.860Z,98299.60
2023-03-14T05:57:25.290Z,98303.20
2023-03-14T05:59:51.832Z,98300.20
2023-03-14T06:02:18.382Z,98297.60
2023-03-14T06:04:44.961Z,98296.20
2023-03-14T06:07:11.452Z,98300.40
2023-03-14T06:09:38.446Z,98308.00
2023-03-14T06:12:05.050Z,98306.60
2023-03-14T06:14:32.081Z,98308.00
2023-03-14T06:16:59.558Z,98311.60
2023-03-14T06:19:26.694Z,98314.00
2023-03-14T06:21:53.553Z,98315.20
2023-03-14T06:24:20.122Z,98319.00
2023-03-14T06:26:47.011Z,98321.20
2023-03-14T06:29:13.925Z,98320.80
2023-03-14T06:31:40.398Z,98316.20
2023-03-14T06:34:07.258Z,98311.60
2023-03-14T06:36:33.914Z,98308.80
2023-03-14T06:39:00.476Z,98317.00
2023-03-14T06:41:27.140Z,98319.00
2023-03-14T06:43:55.401Z,98325.40
2023-03-14T06:46:23.745Z,98316.00
2023-03-14T06:48:50.336Z,98311.60
2023-03-14T06:51:16.864Z,98308.20
2023-03-14T06:53:43.284Z,98309.20
2023-03-14T06:56:09.859Z,98313.80
2023-03-14T06:58:36.480Z,98310.00
2023-03-14T07:01:03.626Z,98311.00
2023-03-14T07:03:35.513Z,98307.60
2023-03-14T07:06:01.951Z,98316.40
2023-03-14T07:08:28.387Z,98316.20
2023-03-14T07:10:57.667Z,98324.00
2023-03-14T07:13:24.233Z,98320.60
2023-03-14T07:15:50.805Z,98322.00
2023-03-14T07:18:17.300Z,98326.00
2023-03-14T07:20:46.476Z,98325.80
2023-03-14T07:23:12.918Z,98320.40
2023-03-14T07:25:39.574Z,98318.20
2023-03-14T07:28:06.005Z,98314.80
2023-03-14T07:30:33.164Z,98303.40
2023-03-14T07:32:59.678Z,98299.20
2023-03-14T07:35:26.241Z,98290.60
2023-03-14T07:37:52.817Z,98290.80
2023-03-14T07:40:20.114Z,98280.20
2023-03-14T07:42:47.012Z,98272.00
2023-03-14T07:45:13.535Z,98277.40
2023-03-14T07:47:40.080Z,98271.20
2023-03-14T07:50:08.095Z,98278.20
2023-03-14T07:52:34.724Z,98280.80
2023-03-14T07:55:01.216Z,98282.00
2023-03-14T07:57:27.686Z,98266.80
2023-03-14T07:59:54.147Z,98270.00
2023-03-14T08:02:22.714Z,98268.20
2023-03-14T08:04:49.761Z,98261.40
2023-03-14T08:07:16.776Z,98250.60
2023-03-14T08:09:44.344Z,98249.60
2023-03-14T08:12:10.930Z,98260.60
2023-03-14T08:14:37.467Z,98264.40
2023-03-14T08:17:05.579Z,98252.00
2023-03-14T08:19:31.966Z,98247.40
2023-03-14T08:21:58.395Z,98245.80
2023-03-14T08:24:24.927Z,98237.80
2023-03-14T08:26:51.412Z,98235.60
2023-03-14T08:29:17.931Z,98239.40
2023-03-14T08:31:44.927Z,98243.00
2023-03-14T08:34:11.412Z,98235.60
2023-03-14T08:36:38.028Z,98231.80
2023-03-14T08:39:07.646Z,98224.80
2023-03-14T08:41:40.536Z,98226.60
2023-03-14T08:44:11.947Z,98216.00
2023-03-14T08:46:38.523Z,98205.40
2023-03-14T08:49:05.362Z,98205.20
2023-03-14T08:51:32.024Z,98206.60
2023-03-14T08:53:58.523Z,98201.20
2023-03-14T08:56:26.134Z,98199.00
2023-03-14T08:58:52.706Z,98212.60
2023-03-14T09:01:19.647Z,98219.60
2023-03-14T09:03:47.549Z,98221.40
2023-03-14T09:06:14.142Z,98214.60
2023-03-14T09:08:40.576Z,98215.60
2023-03-14T09:11:09.090Z,98220.60
2023-03-14T09:13:36.580Z,98211.60
2023-03-14T09:16:04.147Z,98204.20
2023-03-14T09:18:30.811Z,98207.40
2023-03-14T09:20:57.399Z,98208.20
2023-03-14T09:23:23.895Z,98212.60
2023-03-14T09:25:56.427Z,98222.60
2023-03-14T09:28:23.022Z,98237.20
2023-03-14T09:30:50.078Z,98239.80
2023-03-14T09:33:17.845Z,98238.00
2023-03-14T09:35:44.462Z,98238.80
2023-03-14T09:38:10.984Z,98250.60
2023-03-14T09:40:38.936Z,98251.00
2023-03-14T09:43:06.496Z,98238.00
2023-03-14T09:45:40.817Z,98236.60
2023-03-14T09:48:26.773Z,98242.00
2023-03-14T09:50:57.141Z,98246.60
2023-03-14T09:53:31.725Z,98249.00
2023-03-14T09:55:59.685Z,98246.00
2023-03-14T09:58:27.631Z,98244.60
2023-03-14T10:00:58.686Z,98259.80
2023-03-14T10:03:31.525Z,98264.20
2023-03-14T10:05:58.455Z,98256.40
2023-03-14T10:08:25.521Z,98247.00
2023-03-14T10:10:54.024Z,98249.40
2023-03-14T10:13:28.275Z,98249.60
2023-03-14T10:16:03.539Z,98260.80
2023-03-14T10:18:34.536Z,98254.00
2023-03-14T10:21:31.303Z,98255.40
2023-03-14T10:24:26.906Z,98256.60
2023-03-14T10:27:19.389Z,98260.00
2023-03-14T10:29:59.908Z,98264.00
2023-03-14T10:32:39.050Z,98269.60
2023-03-14T10:35:14.865Z,98274.60
2023-03-14T10:38:01.623Z,98264.40
2023-03-14T10:40:31.493Z,98272.60
2023-03-14T10:43:00.781Z,98268.80
2023-03-14T10:45:46.115Z,98270.00
2023-03-14T10:48:15.293Z,98267.20
2023-03-14T10:50:57.517Z,98271.80
2023-03-14T10:53:27.556Z,98278.60
2023-03-14T10:55:57.248Z,98278.00
2023-03-14T10:58:27.843Z,98269.40
2023-03-14T11:01:15.530Z,98261.00
2023-03-14T11:03:55.592Z,98248.00
2023-03-14T11:06:38.940Z,98254.20
2023-03-14T11:09:24.083Z,98246.20
2023-03-14T11:11:50.478Z,98238.60
2023-03-14T11:14:39.331Z,98237.00
2023-03-14T11:17:19.842Z,98223.20
2023-03-14T11:20:26.872Z,98222.00
2023-03-14T11:23:34.947Z,98220.40
2023-03-14T11:26:26.814Z,98209.60
2023-03-14T11:29:37.038Z,98216.60
2023-03-14T11:32:19.969Z,98215.00
2023-03-14T11:34:55.251Z,98220.00
2023-03-14T11:37:36.915Z,98219.20
2023-03-14T11:40:19.461Z,98223.20
2023-03-14T11:42:59.423Z,98221.60
2023-03-14T11:45:34.898Z,98223.20
2023-03-14T11:48:50.349Z,98209.80
2023-03-14T11:51:31.771Z,98198.60
2023-03-14T11:54:19.060Z,98205.40
2023-03-14T11:56:58.600Z,98195.20
2023-03-14T11:59:42.952Z,98190.80
2023-03-14T12:02:22.647Z,98191.60
2023-03-14T12:05:30.308Z,98206.40
2023-03-14T12:08:09.145Z,98206.20
2023-03-14T12:10:41.625Z,98206.20
2023-03-14T12:13:12.041Z,98210.00
2023-03-14T12:15:51.493Z,98213.00
2023-03-14T12:18:29.584Z,98212.60
2023-03-14T12:21:11.077Z,98201.00
2023-03-14T12:23:49.530Z,98204.80
2023-03-14T12:26:20.120Z,98208.40
2023-03-14T12:29:09.486Z,98212.00
2023-03-14T12:31:49.388Z,98208.00
2023-03-14T12:34:15.739Z,98210.20
2023-03-14T12:36:48.958Z,98215.60
2023-03-14T12:39:33.585Z,98208.00
2023-03-14T12:42:19.790Z,98207.60
2023-03-14T12:44:49.219Z,98194.40
2023-03-14T12:47:18.469Z,98197.20
2023-03-14T12:49:52.738Z,98191.00
2023-03-14T12:52:45.808Z,98190.80
2023-03-14T12:55:34.625Z,98188.40
2023-03-14T12:58:45.386Z,98185.20
2023-03-14T13:01:20.352Z,98189.40
2023-03-14T13:04:07.678Z,98185.80
2023-03-14T13:06:59.683Z,98196.60
2023-03-14T13:09:32.881Z,98198.80
2023-03-14T13:12:28.097Z,98196.20
2023-03-14T13:14:54.600Z,98188.40
2023-03-14T13:17:42.115Z,98184.80
2023-03-14T13:20:57.574Z,98186.00
2023-03-14T13:23:31.772Z,98178.80
2023-03-14T13:26:01.363Z,98176.40
2023-03-14T13:28:30.654Z,98174.80
2023-03-14T13:31:05.158Z,98167.40
2023-03-14T13:33:35.277Z,98171.40
2023-03-14T13:36:06.226Z,98174.80
2023-03-14T13:38:36.840Z,98182.60
2023-03-14T13:41:08.609Z,98179.80
2023-03-14T13:43:44.143Z,98172.40
2023-03-14T13:46:25.775Z,98182.20
2023-03-14T13:48:58.429Z,98186.80
2023-03-14T13:51:29.774Z,98185.00
2023-03-14T13:53:56.562Z,98193.40
2023-03-14T13:56:29.382Z,98181.00
2023-03-14T13:58:56.333Z,98183.40
2023-03-14T14:01:27.787Z,98176.60
2023-03-14T14:03:58.405Z,98180.40
2023-03-14T14:06:33.629Z,98178.80
2023-03-14T14:09:14.536Z,98185.60
2023-03-14T14:12:11.284Z,98185.00
2023-03-14T14:15:16.112Z,98189.80
2023-03-14T14:18:01.077Z,98189.20
2023-03-14T14:20:35.920Z,98187.40
2023-03-14T14:23:10.064Z,98201.00
2023-03-14T14:25:39.977Z,98199.80
2023-03-14T14:28:37.730Z,98205.80
2023-03-14T14:31:25.665Z,98206.40
2023-03-14T14:34:04.138Z,98206.80
2023-03-14T14:36:40.973Z,98207.80
2023-03-14T14:39:27.273Z,98214.80
2023-03-14T14:41:53.851Z,98215.80
2023-03-14T14:44:34.235Z,98209.60
2023-03-14T14:47:04.683Z,98217.20
2023-03-14T14:49:33.917Z,98212.60
2023-03-14T14:52:17.725Z,98210.20
2023-03-14T14:54:54.953Z,98217.60
2023-03-14T14:57:30.665Z,98213.80
2023-03-14T15:00:11.598Z,98206.40
2023-03-14T15:02:45.776Z,98210.60
2023-03-14T15:05:25.150Z,98208.20
2023-03-14T15:07:52.068Z,98203.80
2023-03-14T15:10:23.311Z,98200.60
2023-03-14T15:12:49.878Z,98205.00
2023-03-14T15:15:17.891Z,98205.20
2023-03-14T15:17:44.733Z,98207.80
2023-03-14T15:20:15.747Z,98215.80
2023-03-14T15:22:43.268Z,98208.20
2023-03-14T15:25:18.637Z,98207.60
2023-03-14T15:27:53.424Z,98212.60
2023-03-14T15:30:20.116Z,98207.20
2023-03-14T15:32:46.965Z,98208.80
2023-03-14T15:35:17.346Z,98202.60
2023-03-14T15:37:45.243Z,98210.00
2023-03-14T15:40:14.218Z,98211.80
2023-03-14T15:42:42.049Z,98217.00
2023-03-14T15:45:09.521Z,98216.20
2023-03-14T15:47:36.420Z,98219.40
2023-03-14T15:50:04.224Z,98224.60
2023-03-14T15:52:31.017Z,98232.60
2023-03-14T15:54:57.412Z,98235.20
2023-03-14T15:57:25.131Z,98235.80
2023-03-14T15:59:51.760Z,98240.20
2023-03-14T16:02:18.238Z,98245.60
2023-03-14T16:04:44.724Z,98252.40
2023-03-14T16:07:14.354Z,98258.00
2023-03-14T16:09:40.976Z,98270.00
2023-03-14T16:12:09.099Z,98277.00
2023-03-14T16:14:35.786Z,98293.40
2023-03-14T16:17:02.309Z,98292.80
2023-03-14T16:19:31.177Z,98289.60
2023-03-14T16:21:57.811Z,98290.20
2023-03-14T16:24:24.281Z,98283.80
2023-03-14T16:26:50.879Z,98285.60
2023-03-14T16:29:17.344Z,98285.80
2023-03-14T16:31:44.761Z,98279.40
2023-03-14T16:34:12.105Z,98275.60
2023-03-14T16:36:38.686Z,98270.80
2023-03-14T16:39:05.528Z,98266.40
2023-03-14T16:41:32.172Z,98263.60
2023-03-14T16:44:01.187Z,98269.60
2023-03-14T16:46:29.790Z,98280.20
2023-03-14T16:48:57.311Z,98284.80
2023-03-14T16:51:23.966Z,98287.80
2023-03-14T16:53:50.533Z,98290.60
2023-03-14T16:56:17.719Z,98296.40
2023-03-14T16:58:44.881Z,98307.00
2023-03-14T17:01:17.203Z,98311.40
2023-03-14T17:03:49.574Z,98309.60
2023-03-14T17:06:26.544Z,98317.40
2023-03-14T17:08:55.815Z,98324.00
2023-03-14T17:11:23.531Z,98321.80
2023-03-14T17:13:50.464Z,98315.20
2023-03-14T17:16:17.576Z,98314.80
2023-03-14T17:18:44.173Z,98313.60
2023-03-14T17:21:11.098Z,98313.00
2023-03-14T17:23:37.993Z,98313.40
2023-03-14T17:26:07.310Z,98314.60
2023-03-14T17:28:36.774Z,98318.00
2023-03-14T17:31:15.172Z,98314.80
2023-03-14T17:33:42.465Z,98313.80
2023-03-14T17:36:13.222Z,98320.60
2023-03-14T17:38:40.381Z,98321.80
2023-03-14T17:41:10.960Z,98325.20
2023-03-14T17:43:39.194Z,98335.80
2023-03-14T17:46:11.085Z,98328.40
2023-03-14T17:48:38.160Z,98323.60
2023-03-14T17:51:05.249Z,98318.40
2023-03-14T17:53:32.042Z,98318.00
2023-03-14T17:56:02.566Z,98317.20
2023-03-14T17:58:35.922Z,98313.80
2023-03-14T18:01:16.972Z,98314.00
2023-03-14T18:03:45.612Z,98311.60
2023-03-14T18:06:14.961Z,98311.40
2023-03-14T18:08:44.361Z,98309.00
2023-03-14T18:11:12.839Z,98311.00
2023-03-14T18:13:41.148Z,98304.60
2023-03-14T18:16:13.633Z,98305.60
2023-03-14T18:18:48.179Z,98303.00
2023-03-14T18:21:17.835Z,98310.80
2023-03-14T18:23:45.326Z,98305.80
2023-03-14T18:26:12.712Z,98317.60
2023-03-14T18:28:39.320Z,98327.80
2023-03-14T18:31:10.421Z,98325.00
2023-03-14T18:33:39.670Z,98325.20
2023-03-14T18:36:11.287Z,98321.00
2023-03-14T18:38:42.528Z,98327.00
2023-03-14T18:41:13.204Z,98323.40
2023-03-14T18:43:41.794Z,98326.20
2023-03-14T18:46:13.545Z,98327.60
2023-03-14T18:48:41.908Z,98329.40
2023-03-14T18:51:11.783Z,98328.00
2023-03-14T18:53:38.932Z,98328.80
2023-03-14T18:56:06.454Z,98329.60
2023-03-14T18:58:33.393Z,98329.00
2023-03-14T19:01:03.039Z,98329.80
2023-03-14T19:06:17.556Z,98341.80
2023-03-14T19:08:44.142Z,98347.00
2023-03-14T19:11:14.079Z,98357.80
2023-03-14T19:13:42.703Z,98366.00
2023-03-14T19:16:15.879Z,98374.00
2023-03-14T19:18:42.647Z,98381.80
2023-03-14T19:21:12.829Z,98395.40
2023-03-14T19:23:42.513Z,98390.60
2023-03-14T19:26:09.380Z,98416.80
2023-03-14T19:28:36.644Z,98479.20
2023-03-14T19:31:04.976Z,98471.20
2023-03-14T19:33:31.924Z,98480.20
2023-03-14T19:36:01.971Z,98501.20
2023-03-14T19:38:28.672Z,98517.20
2023-03-14T19:40:58.424Z,98548.40
2023-03-14T19:43:26.868Z,98565.40
2023-03-14T19:46:16.360Z,98594.80
2023-03-14T19:48:45.576Z,98597.60
2023-03-14T19:51:15.020Z,98604.20
2023-03-14T19:53:43.575Z,98594.00
2023-03-14T19:56:11.442Z,98616.20
2023-03-14T19:58:39.839Z,98619.40
2023-03-14T20:01:08.343Z,98629.80
2023-03-14T20:03:36.530Z,98639.00
2023-03-14T20:06:12.392Z,98652.40
2023-03-14T20:08:40.553Z,98681.80
2023-03-14T20:11:08.253Z,98680.00
2023-03-14T20:13:35.345Z,98666.00
2023-03-14T20:16:09.956Z,98666.00
2023-03-14T20:18:37.404Z,98676.60
2023-03-14T20:21:11.994Z,98670.20
2023-03-14T20:23:39.265Z,98665.80
2023-03-14T20:26:06.013Z,98694.20
2023-03-14T20:28:32.858Z,98689.00
2023-03-14T20:31:00.541Z,98698.60
2023-03-14T20:33:27.392Z,98714.80
2023-03-14T20:35:59.910Z,98711.40
2023-03-14T20:38:28.124Z,98722.80
2023-03-14T20:40:59.946Z,98697.60
2023-03-14T20:43:28.680Z,98715.40
2023-03-14T20:45:58.610Z,98727.40
2023-03-14T20:48:27.884Z,98716.60
2023-03-14T20:50:55.087Z,98716.40
2023-03-14T20:53:23.494Z,98741.00
2023-03-14T20:55:51.500Z,98750.60
2023-03-14T20:58:18.258Z,98766.40
2023-03-14T21:00:48.283Z,98777.60
2023-03-14T21:03:17.259Z,98784.80
2023-03-14T21:05:46.357Z,98790.20
2023-03-14T21:08:20.877Z,98789.00
2023-03-14T21:10:52.465Z,98798.40
2023-03-14T21:13:19.462Z,98804.80
2023-03-14T21:15:46.294Z,98816.20
2023-03-14T21:18:13.032Z,98814.20
2023-03-14T21:20:41.636Z,98812.40
2023-03-14T21:23:11.138Z,98807.40
2023-03-14T21:25:38.308Z,98814.00
2023-03-14T21:28:05.184Z,98822.20
2023-03-14T21:30:34.012Z,98822.00
2023-03-14T21:33:02.006Z,98819.80
2023-03-14T21:35:29.833Z,98819.60
2023-03-14T21:37:56.778Z,98841.20
2023-03-14T21:40:23.869Z,98858.00
2023-03-14T21:42:53.801Z,98849.20
2023-03-14T21:45:26.384Z,98859.60
2023-03-14T21:47:54.794Z,98862.40
2023-03-14T21:50:23.947Z,98858.00
2023-03-14T21:52:56.034Z,98857.40
2023-03-14T21:55:24.727Z,98858.80
2023-03-14T21:57:53.760Z,98861.60
2023-03-14T22:00:21.275Z,98881.00
2023-03-14T22:03:11.609Z,98899.20
2023-03-14T22:05:45.513Z,98894.60
2023-03-14T22:08:15.030Z,98892.60
2023-03-14T22:10:53.158Z,98896.20
2023-03-14T22:14:02.984Z,98907.00
2023-03-14T22:16:29.719Z,98898.00
2023-03-14T22:18:56.368Z,98899.00
2023-03-14T22:21:23.121Z,98890.40
2023-03-14T22:23:50.275Z,98896.20
2023-03-14T22:26:17.401Z,98913.40
2023-03-14T22:28:44.134Z,98922.40
2023-03-14T22:31:10.780Z,98930.40
2023-03-14T22:33:37.556Z,98927.60
2023-03-14T22:36:05.348Z,98930.80
2023-03-14T22:38:34.476Z,98941.00
2023-03-14T22:41:03.006Z,98963.60
2023-03-14T22:43:30.330Z,98976.20
2023-03-14T22:46:06.056Z,98978.40
2023-03-14T22:48:33.762Z,98984.20
2023-03-14T22:51:10.403Z,98995.00
2023-03-14T22:53:37.650Z,98996.00
2023-03-14T22:56:08.700Z,99012.00
2023-03-14T22:58:35.964Z,99016.20
2023-03-14T23:01:04.535Z,99028.40
2023-03-14T23:03:31.434Z,99037.60
2023-03-14T23:05:58.083Z,99037.20
2023-03-14T23:08:27.572Z,99041.20
2023-03-14T23:11:03.762Z,99047.20
2023-03-14T23:13:30.913Z,99054.40
2023-03-14T23:15:58.676Z,99073.00
2023-03-14T23:18:27.018Z,99077.40
2023-03-14T23:21:09.861Z,99082.80
2023-03-14T23:23:37.214Z,99090.80
2023-03-14T23:26:06.804Z,99097.00
2023-03-14T23:28:33.717Z,99097.20
2023-03-14T23:31:01.219Z,99102.80
2023-03-14T23:33:28.882Z,99118.00
2023-03-14T23:35:55.604Z,99125.80
2023-03-14T23:38:27.480Z,99125.00
2023-03-14T23:40:54.250Z,99121.80
2023-03-14T23:43:21.227Z,99134.60
2023-03-14T23:45:56.432Z,99145.00
2023-03-14T23:48:33.182Z,99149.40
2023-03-14T23:51:03.837Z,99155.20
2023-03-14T23:53:31.919Z,99163.80
2023-03-14T23:55:59.069Z,99169.80
2023-03-14T23:58:26.118Z,99168.20
